• Join FlightAware (Why Join?)
  • Login
  • US Flag 
10:52PM EST


 

Airport Tracker/Info


-or-


 

Live Flight TrackerFlight Track Log ✈ ASQ6185 ✈ 07-Jul-2013 ✈ KSLC - KDEN

Flight Track Log - Related Links

Times and Time Zones

All times are in EDT time to prevent confusion due to time zone crossing. See the ASQ6185 flight status page for this flight to view local times or setup timezone preferences in your user account.

Time Position Orientation Groundspeed Altitude Reporting Facility
EDT Latitude Longitude Course Direction KTS MPH feet Rate Location/Type
07:47PM 40.7739 -111.9989 105° East 177 204 4,900  Level Salt Lake Center
07:48PM 40.7508 -112.0350 230° Southwest 206 237 6,400 1,920 Climbing Salt Lake Center
07:49PM 40.7756 -112.0939 299° West 248 285 8,100 2,340 Climbing Salt Lake Center
07:50PM 40.8292 -112.1614 316° Northwest 248 285 10,700 1,980 Climbing Salt Lake Center
07:51PM 41.0071 -112.1834 79° East  Level FlightAware Approximate
07:51PM 40.8978 -112.1933 341° North 289 333 12,200  Level Salt Lake Center
07:52PM 41.0052 -112.0426 105° East  Level FlightAware Approximate
07:52PM 40.9581 -112.1544 26° Northeast 306 352 14,000  Level Salt Lake Center
07:53PM 40.9539 -112.0303 93° East 347 399 14,900 1,020 Climbing Salt Lake Center
07:54PM 40.9428 -111.8672 95° East 381 438 16,200 1,260 Climbing Salt Lake Center
07:55PM 40.9325 -111.7281 96° East 393 452 17,500 1,140 Climbing Salt Lake Center
07:56PM 40.9219 -111.5850 96° East 396 456 18,600 900 Climbing Salt Lake Center
07:57PM 40.9111 -111.4392 96° East 401 461 19,400 1,080 Climbing Salt Lake Center
07:58PM 40.8969 -111.2650 96° East 399 459 20,900 1,260 Climbing Salt Lake Center
07:59PM 40.8844 -111.1189 96° East 401 461 22,100 1,140 Climbing Salt Lake Center
08:00PM 40.8725 -110.9711 96° East 405 466 23,300 1,140 Climbing Salt Lake Center
08:01PM 40.8611 -110.8233 96° East 406 467 24,500 1,200 Climbing Salt Lake Center
08:02PM 40.8489 -110.6756 96° East 405 466 25,800 1,200 Climbing Salt Lake Center
08:03PM 40.8350 -110.5097 96° East 406 467 27,100 1,200 Climbing Salt Lake Center
08:04PM 40.8236 -110.3681 96° East 407 468 28,400 1,380 Climbing Salt Lake Center
08:05PM 40.8092 -110.2036 97° East 399 459 30,000 1,260 Climbing Salt Lake Center
08:06PM 40.7972 -110.0656 96° East 396 456 31,000 480 Climbing Salt Lake Center
08:07PM 40.7822 -109.8950 97° East 417 480 31,000  Level Salt Lake Center
08:08PM 40.7678 -109.7381 97° East 445 512 31,000  Level Salt Lake Center
08:09PM 40.7525 -109.5733 97° East 469 540 31,000  Level Salt Lake Center
08:10PM 40.7336 -109.3764 97° East 481 554 31,000  Level Salt Lake Center
08:11PM 40.7158 -109.1872 97° East 486 559 31,000  Level Salt Lake Center
08:12PM 40.7075 -109.0914 97° East 485 558 31,000  Level Denver Center
08:13PM 40.6939 -108.9225 96° East 483 556 31,000  Level Denver Center
08:14PM 40.6789 -108.7275 96° East 479 551 31,000  Level Denver Center
08:15PM 40.6914 -108.5603 84° East 478 550 31,000  Level Denver Center
08:16PM 40.7100 -108.3933 82° East 479 551 31,000  Level Denver Center
08:17PM 40.7328 -108.1989 81° East 479 551 31,000  Level Denver Center
08:18PM 40.7531 -108.0225 81° East 478 550 31,000  Level Denver Center
08:19PM 40.7508 -107.8575 91° East 476 548 31,000  Level Denver Center
08:20PM 40.7247 -107.6764 101° East 472 543 31,000  Level Denver Center
08:21PM 40.6936 -107.4844 102° East 477 549 31,000  Level Denver Center
08:22PM 40.6694 -107.3197 101° East 478 550 31,000  Level Denver Center
08:23PM 40.6417 -107.1542 102° East 480 552 31,000  Level Denver Center
08:24PM 40.6144 -106.9803 102° East 482 555 31,000  Level Denver Center
08:25PM 40.5875 -106.8072 102° East 481 554 31,000 -360 Level Denver Center
08:26PM 40.5528 -106.5978 102° East 486 559 30,300 -780 Descending Denver Center
08:27PM 40.5272 -106.4372 102° East 482 555 29,400 -1,020 Descending Denver Center
08:28PM 40.4967 -106.2492 102° East 471 542 28,300 -1,620 Descending Denver Center
08:30PM 40.4650 -106.0653 103° East 480 552 26,100 -2,460 Descending Denver Center
08:31PM 40.4364 -105.9000 103° East 469 540 23,300 -2,640 Descending Denver Center
08:32PM 40.4100 -105.7442 102° East 445 512 20,700 -2,580 Descending Denver Center
08:33PM 40.3831 -105.5958 103° East 424 488 18,000 -1,860 Descending Denver Center
08:34PM 40.3586 -105.4514 102° East 370 426 17,000 -1,320 Descending Denver Center
08:35PM 40.3408 -105.3275 101° East 348 400 15,400 -1,440 Descending Denver Center
08:36PM 40.3253 -105.2072 100° East 337 388 14,100 -1,200 Descending Denver Center
08:37PM 40.3078 -105.0844 101° East 324 373 13,000 -960 Descending Denver Center
08:38PM 40.2658 -105.0011 123° Southeast 283 326 12,200 -720 Descending Denver Center
08:39PM 40.2147 -104.9242 131° Southeast 264 304 11,600 -960 Descending Denver Center
08:40PM 40.1681 -104.8533 131° Southeast 259 298 10,300 -1,200 Descending Denver Center
08:41PM 40.1239 -104.7853 130° Southeast 247 284 9,200 -1,140 Descending Denver Center
08:42PM 40.0581 -104.7419 153° Southeast 247 284 8,000 -960 Descending Denver Center
08:43PM 40.0036 -104.7114 157° South 214 246 7,300 -720 Descending Denver Center